Pontardulais, United Kingdom
Current Conditions -  °F | °C
As of 1:50 PM on Monday 22 Dec 2014 (Local Time) from EGOP Reporting Station
Broken Clouds Broken Clouds  
Wind Chill: 54°   Ceiling: 1200
Heat Index: 54°   Visibility: 4mi
Dew Point: 50°   Wind: 30mph
Humidity: 88%   Direction: 240°WSW
Pressure: 30.06"   Gusts: NA
Location:  51.71°N, 4.04°W
Report Text: EGOP 221350Z AUTO 24026KT 7000 // BKN012/// BKN019/// 12/10 Q1018
Loading
Personal Weather Stations






























Interactive Weather Map New forecast layout! Learn more

10-Day Weather Forecast

Advertisements
Track Severe Weather on mobile